Segondi, Kazakhstan
Current Conditions -  °F | °C
As of 8:00 PM on Wednesday 26 Nov 2014 (Local Time) from UATE Reporting Station
Clear Clear  
Wind Chill: 16°   Ceiling: Unl
Heat Index: 27°   Visibility: 6mi
Dew Point:   Wind: 11mph
Humidity: 43%   Direction: 80°E
Pressure: 30.3"   Gusts: NA
Location:  43.84°N, 51.02°E
Report Text: UATE 261600Z 08005MPS CAVOK M03/M14 Q1026 R12/0///70 NOSIG RMKQFE768/1024
Loading
Personal Weather Stations






























Interactive Weather Map New forecast layout! Learn more

10-Day Weather Forecast

Advertisements
Track Severe Weather on mobile